Time;durP1;ratioP1;P1;durP2;ratioP2;P2;SDS_P1;SDS_P2;PMS_P1;PMS_P2;Temp;Humidity;BMP_temperature;BMP_pressure;BME280_temperature;BME280_humidity;BME280_pressure;Samples;Min_cycle;Max_cycle;Signal;HPM_P1;HPM_P2
2023/06/02 00:01:34;;;;;;;13.52;4.35;;;10.10;99.90;;;;;;6177103;23;20013;-58
2023/06/02 00:04:04;;;;;;;18.52;4.45;;;10.10;99.90;;;;;;6179946;23;20009;-60
2023/06/02 00:06:32;;;;;;;10.85;3.35;;;10.10;99.90;;;;;;6178994;23;20009;-58
2023/06/02 00:08:58;;;;;;;15.02;4.72;;;10.10;99.90;;;;;;6174957;23;20009;-59
2023/06/02 00:11:25;;;;;;;13.80;4.63;;;10.10;99.90;;;;;;6178618;23;20039;-59
2023/06/02 00:13:50;;;;;;;12.70;4.00;;;10.10;99.90;;;;;;6179012;23;20005;-59
2023/06/02 00:16:16;;;;;;;14.05;4.07;;;10.10;99.90;;;;;;6179666;23;20015;-58
2023/06/02 00:18:43;;;;;;;16.92;5.15;;;10.10;99.90;;;;;;6179537;23;20001;-58
2023/06/02 00:21:09;;;;;;;24.13;5.57;;;10.10;99.90;;;;;;6179261;23;20056;-59
2023/06/02 00:23:35;;;;;;;15.55;3.72;;;10.10;99.90;;;;;;6177782;23;20001;-59
2023/06/02 00:26:02;;;;;;;15.98;3.75;;;10.10;99.90;;;;;;6153037;23;20008;-59
2023/06/02 00:28:28;;;;;;;17.13;4.15;;;10.10;99.90;;;;;;6151291;23;20384;-60
2023/06/02 00:30:54;;;;;;;12.55;4.05;;;10.10;99.90;;;;;;6179541;23;20015;-60
2023/06/02 00:33:20;;;;;;;11.23;3.58;;;10.10;99.90;;;;;;6180015;23;20025;-59
2023/06/02 00:35:46;;;;;;;10.90;3.83;;;10.10;99.90;;;;;;6177730;23;20012;-60
2023/06/02 00:38:12;;;;;;;14.98;4.60;;;10.00;99.90;;;;;;6179423;23;20228;-58
2023/06/02 00:40:38;;;;;;;20.05;4.35;;;10.00;99.90;;;;;;6178681;23;20005;-60
2023/06/02 00:43:03;;;;;;;18.13;3.67;;;9.90;99.90;;;;;;6179586;23;20005;-59
2023/06/02 00:45:29;;;;;;;14.88;3.30;;;9.90;99.90;;;;;;6179298;23;20001;-59
2023/06/02 00:48:00;;;;;;;14.38;3.25;;;9.90;99.90;;;;;;6153507;23;20078;-61
2023/06/02 00:50:27;;;;;;;14.43;6.07;;;9.80;99.90;;;;;;6152463;23;20019;-61
2023/06/02 00:52:55;;;;;;;11.02;3.97;;;9.80;99.90;;;;;;6179803;23;20337;-59
2023/06/02 00:55:21;;;;;;;10.35;4.22;;;9.80;99.90;;;;;;6150917;23;20437;-60
2023/06/02 00:57:48;;;;;;;7.40;3.05;;;9.70;99.90;;;;;;6151280;23;20020;-60
2023/06/02 01:00:14;;;;;;;7.30;2.85;;;9.70;99.90;;;;;;6175859;23;20001;-60
2023/06/02 01:02:40;;;;;;;11.95;3.42;;;9.70;99.90;;;;;;6149815;23;20004;-58
2023/06/02 01:05:10;;;;;;;18.33;4.65;;;9.70;99.90;;;;;;6177853;23;20136;-59
2023/06/02 01:07:39;;;;;;;11.55;3.35;;;9.70;99.90;;;;;;6179347;23;20085;-60
2023/06/02 01:10:07;;;;;;;12.90;3.40;;;9.60;99.90;;;;;;6178539;23;20025;-59
2023/06/02 01:12:33;;;;;;;14.55;3.97;;;9.60;99.90;;;;;;6179065;23;20009;-59
2023/06/02 01:14:58;;;;;;;11.13;3.97;;;9.60;99.90;;;;;;6179011;23;20084;-60
2023/06/02 01:17:35;;;;;;;16.60;3.50;;;9.50;99.90;;;;;;6179453;23;20001;-59
2023/06/02 01:20:04;;;;;;;14.25;3.38;;;9.50;99.90;;;;;;6178965;23;20085;-60
2023/06/02 01:22:34;;;;;;;10.02;3.25;;;9.50;99.90;;;;;;6177790;23;20025;-58
2023/06/02 01:25:00;;;;;;;12.13;3.10;;;9.50;99.90;;;;;;6179320;23;20456;-60
2023/06/02 01:27:25;;;;;;;14.25;3.55;;;9.40;99.90;;;;;;6179082;23;20013;-60
2023/06/02 01:29:54;;;;;;;11.00;3.72;;;9.40;99.90;;;;;;6178817;23;20005;-59
2023/06/02 01:32:34;;;;;;;12.60;3.70;;;9.40;99.90;;;;;;6178754;23;20075;-58
2023/06/02 01:35:05;;;;;;;10.75;3.42;;;9.40;99.90;;;;;;6152047;23;20040;-60
2023/06/02 01:37:33;;;;;;;10.80;4.18;;;9.40;99.90;;;;;;6179375;23;20005;-59
2023/06/02 01:40:01;;;;;;;8.43;3.35;;;9.30;99.90;;;;;;6179310;23;20001;-60
2023/06/02 01:42:27;;;;;;;9.95;3.33;;;9.30;99.90;;;;;;6178764;23;20052;-60
2023/06/02 01:44:53;;;;;;;12.40;3.17;;;9.30;99.90;;;;;;6178083;23;20019;-59
2023/06/02 01:47:19;;;;;;;21.00;4.65;;;9.30;99.90;;;;;;6178704;23;20024;-60
2023/06/02 01:49:44;;;;;;;12.75;3.30;;;9.30;99.90;;;;;;6178971;23;20463;-60
2023/06/02 01:52:10;;;;;;;14.68;3.47;;;9.20;99.90;;;;;;6150932;23;20092;-58
2023/06/02 01:54:36;;;;;;;9.82;2.95;;;9.20;99.90;;;;;;6178702;23;20001;-60
2023/06/02 01:57:02;;;;;;;15.32;3.33;;;9.20;99.90;;;;;;6178966;23;20374;-61
2023/06/02 01:59:28;;;;;;;10.57;3.35;;;9.20;99.90;;;;;;6179285;23;20489;-60
2023/06/02 02:01:53;;;;;;;14.20;3.70;;;9.10;99.90;;;;;;6178055;23;20087;-60
2023/06/02 02:04:20;;;;;;;11.57;3.25;;;9.10;99.90;;;;;;6178922;23;20009;-61
2023/06/02 02:06:49;;;;;;;11.30;3.67;;;9.10;99.90;;;;;;6179366;23;20428;-59
2023/06/02 02:09:15;;;;;;;13.82;3.30;;;9.10;99.90;;;;;;6179409;23;20488;-60
2023/06/02 02:11:40;;;;;;;13.35;4.53;;;9.10;99.90;;;;;;6179057;23;20030;-60
2023/06/02 02:14:06;;;;;;;19.67;4.95;;;9.10;99.90;;;;;;6178529;23;20772;-60
2023/06/02 02:16:31;;;;;;;8.73;3.25;;;9.10;99.90;;;;;;6178890;23;20009;-61
2023/06/02 02:18:58;;;;;;;10.30;3.20;;;9.00;99.90;;;;;;6152361;23;20009;-60
2023/06/02 02:21:27;;;;;;;9.55;3.47;;;9.00;99.90;;;;;;6152925;23;20166;-58
2023/06/02 02:23:53;;;;;;;12.95;4.05;;;9.00;99.90;;;;;;6178151;23;20073;-61
2023/06/02 02:26:19;;;;;;;10.68;3.50;;;9.00;99.90;;;;;;6178618;23;20389;-60
2023/06/02 02:28:48;;;;;;;11.70;3.70;;;9.00;99.90;;;;;;6178665;23;20001;-61
2023/06/02 02:31:14;;;;;;;11.30;3.53;;;9.00;99.90;;;;;;6178566;23;20092;-60
2023/06/02 02:33:40;;;;;;;14.85;4.75;;;8.90;99.90;;;;;;6178776;23;20440;-60
2023/06/02 02:36:06;;;;;;;9.13;2.70;;;8.90;99.90;;;;;;6179085;23;20001;-60
2023/06/02 02:38:31;;;;;;;11.40;3.83;;;8.90;99.90;;;;;;6178528;23;20076;-60
2023/06/02 02:40:57;;;;;;;12.90;3.55;;;8.90;99.90;;;;;;6180492;23;20414;-59
2023/06/02 02:43:22;;;;;;;9.63;4.03;;;8.90;99.90;;;;;;6181103;23;20012;-60
2023/06/02 02:45:48;;;;;;;13.43;3.83;;;8.90;99.90;;;;;;6180347;23;20005;-61
2023/06/02 02:48:14;;;;;;;10.30;4.20;;;8.90;99.90;;;;;;6180753;23;20005;-61
2023/06/02 02:50:39;;;;;;;12.02;3.55;;;8.90;99.90;;;;;;6180489;23;20001;-61
2023/06/02 02:53:05;;;;;;;11.55;3.75;;;8.90;99.90;;;;;;6154542;23;20063;-61
2023/06/02 02:55:32;;;;;;;11.40;3.78;;;8.90;99.90;;;;;;6153204;23;20083;-60
2023/06/02 02:57:59;;;;;;;15.38;4.15;;;8.90;99.90;;;;;;6180388;23;20101;-60
2023/06/02 03:00:25;;;;;;;10.10;3.88;;;8.90;99.90;;;;;;6179731;23;20028;-58
2023/06/02 03:02:51;;;;;;;15.15;4.40;;;8.80;99.90;;;;;;6180170;23;20371;-60
2023/06/02 03:05:16;;;;;;;13.27;3.72;;;8.80;99.90;;;;;;6179902;23;20068;-61
2023/06/02 03:07:44;;;;;;;14.75;4.43;;;8.90;99.90;;;;;;6180117;23;20013;-60
2023/06/02 03:10:10;;;;;;;12.65;3.92;;;8.80;99.90;;;;;;6153322;23;20443;-60
2023/06/02 03:12:36;;;;;;;14.82;4.30;;;8.90;99.90;;;;;;6179982;23;20036;-59
2023/06/02 03:15:01;;;;;;;23.15;4.13;;;8.90;99.90;;;;;;6180156;23;20039;-60
2023/06/02 03:17:27;;;;;;;13.95;4.25;;;8.80;99.90;;;;;;6179756;23;20005;-57
2023/06/02 03:19:56;;;;;;;12.38;3.53;;;8.80;99.90;;;;;;6180063;23;20009;-60
2023/06/02 03:22:22;;;;;;;18.92;4.50;;;8.80;99.90;;;;;;6178472;23;20355;-61
2023/06/02 03:24:48;;;;;;;14.10;4.00;;;8.80;99.90;;;;;;6179339;23;20008;-60
2023/06/02 03:27:15;;;;;;;19.88;5.03;;;8.80;99.90;;;;;;6179930;23;20094;-60
2023/06/02 03:29:42;;;;;;;19.15;4.55;;;8.80;99.90;;;;;;6179414;23;20429;-61
2023/06/02 03:32:11;;;;;;;18.90;4.20;;;8.80;99.90;;;;;;6152733;23;20039;-60
2023/06/02 03:34:39;;;;;;;12.68;4.78;;;8.80;99.90;;;;;;6152489;23;20001;-60
2023/06/02 03:37:09;;;;;;;12.95;4.25;;;8.80;99.90;;;;;;6180119;23;20396;-59
2023/06/02 03:39:35;;;;;;;14.93;4.38;;;8.80;99.90;;;;;;6152685;23;20504;-60
2023/06/02 03:42:01;;;;;;;11.15;4.50;;;8.80;99.90;;;;;;6180033;23;20024;-61
2023/06/02 03:44:26;;;;;;;8.77;3.80;;;8.80;99.90;;;;;;6179379;23;20005;-60
2023/06/02 03:46:52;;;;;;;16.25;4.25;;;8.80;99.90;;;;;;6180316;23;20166;-61
2023/06/02 03:49:18;;;;;;;18.67;4.60;;;8.80;99.90;;;;;;6179643;23;20012;-61
2023/06/02 03:51:43;;;;;;;15.07;3.88;;;8.80;99.90;;;;;;6179435;23;20665;-60
2023/06/02 03:54:09;;;;;;;13.75;4.82;;;8.80;99.90;;;;;;6179184;23;20084;-61
2023/06/02 03:56:35;;;;;;;12.93;3.75;;;8.80;99.90;;;;;;6179482;23;19997;-60
2023/06/02 03:59:01;;;;;;;14.75;5.50;;;8.80;99.90;;;;;;6179562;23;20015;-58
2023/06/02 04:01:27;;;;;;;11.80;4.20;;;8.80;99.90;;;;;;6179076;23;20013;-58
2023/06/02 04:03:53;;;;;;;16.08;5.30;;;8.80;99.90;;;;;;6179023;23;20013;-61
2023/06/02 04:06:18;;;;;;;17.10;5.03;;;8.80;99.90;;;;;;6153181;23;20012;-60
2023/06/02 04:08:45;;;;;;;10.02;3.25;;;8.90;99.90;;;;;;6179223;23;20012;-59
2023/06/02 04:11:11;;;;;;;8.98;3.85;;;8.90;99.90;;;;;;6179441;23;20039;-60
2023/06/02 04:13:36;;;;;;;10.82;4.07;;;8.90;99.90;;;;;;6153107;23;20388;-61
2023/06/02 04:16:02;;;;;;;13.02;5.38;;;8.90;99.90;;;;;;6178674;23;20005;-61
2023/06/02 04:18:30;;;;;;;14.02;4.95;;;8.90;99.90;;;;;;6152954;23;19997;-60
2023/06/02 04:20:56;;;;;;;14.80;5.15;;;9.00;99.90;;;;;;6179938;23;19997;-61
2023/06/02 04:23:21;;;;;;;14.18;4.47;;;9.00;99.90;;;;;;6151733;23;20001;-61
2023/06/02 04:25:47;;;;;;;14.63;4.78;;;9.00;99.90;;;;;;6179264;23;20429;-62
2023/06/02 04:28:13;;;;;;;12.73;4.50;;;9.00;99.90;;;;;;6179104;23;20039;-61
2023/06/02 04:30:39;;;;;;;16.67;5.00;;;9.10;99.90;;;;;;6178041;23;20116;-61
2023/06/02 04:33:05;;;;;;;11.10;4.07;;;9.10;99.90;;;;;;6179223;23;20621;-61
2023/06/02 04:35:30;;;;;;;13.32;4.35;;;9.10;99.90;;;;;;6150692;23;20019;-61
2023/06/02 04:37:56;;;;;;;13.73;4.82;;;9.20;99.90;;;;;;6152891;23;20088;-61
2023/06/02 04:40:22;;;;;;;9.60;4.38;;;9.20;99.90;;;;;;6179440;23;20341;-61
2023/06/02 04:42:47;;;;;;;10.18;3.33;;;9.20;99.90;;;;;;6179663;23;20005;-61
2023/06/02 04:45:13;;;;;;;9.80;3.90;;;9.30;99.90;;;;;;6178655;23;20005;-61
2023/06/02 04:47:40;;;;;;;10.73;4.00;;;9.40;99.90;;;;;;6179519;23;20087;-61
2023/06/02 04:50:09;;;;;;;10.80;4.47;;;9.40;99.90;;;;;;6179491;23;20012;-61
2023/06/02 04:52:44;;;;;;;11.10;4.22;;;9.50;99.90;;;;;;6179409;23;20005;-61
2023/06/02 04:55:13;;;;;;;8.70;4.07;;;9.50;99.90;;;;;;6178677;23;20005;-60
2023/06/02 04:57:39;;;;;;;13.88;4.22;;;9.60;99.90;;;;;;6178476;23;20039;-61
2023/06/02 05:00:06;;;;;;;11.25;4.20;;;9.70;99.90;;;;;;6178592;23;20013;-61
2023/06/02 05:02:32;;;;;;;11.15;4.10;;;9.70;99.90;;;;;;6178662;23;19994;-61
2023/06/02 05:04:58;;;;;;;12.15;4.50;;;9.80;99.90;;;;;;6178796;23;20001;-61
2023/06/02 05:07:24;;;;;;;9.68;3.38;;;9.80;99.90;;;;;;6179189;23;20021;-61
2023/06/02 05:09:50;;;;;;;6.75;3.75;;;9.90;99.90;;;;;;6178859;23;20059;-61
2023/06/02 05:12:18;;;;;;;8.25;3.55;;;10.10;99.90;;;;;;6178955;23;20540;-61
2023/06/02 05:14:44;;;;;;;7.57;3.50;;;10.20;99.90;;;;;;6178891;23;20005;-60
2023/06/02 05:17:10;;;;;;;10.00;3.88;;;10.20;99.90;;;;;;6152480;23;20005;-60
2023/06/02 05:19:39;;;;;;;7.85;3.72;;;10.30;99.90;;;;;;6179451;23;19997;-61
2023/06/02 05:22:05;;;;;;;15.57;3.83;;;10.30;99.90;;;;;;6178640;23;20005;-61
2023/06/02 05:24:30;;;;;;;13.48;4.00;;;10.40;99.90;;;;;;6178968;23;20076;-60
2023/06/02 05:26:56;;;;;;;10.05;3.58;;;10.40;99.90;;;;;;6153195;23;20033;-60
2023/06/02 05:29:22;;;;;;;12.50;3.67;;;10.50;99.90;;;;;;6179109;23;20009;-62
2023/06/02 05:31:47;;;;;;;11.98;3.97;;;10.60;99.90;;;;;;6152142;23;20025;-61
2023/06/02 05:34:13;;;;;;;9.52;4.65;;;10.60;99.90;;;;;;6178767;23;20079;-62
2023/06/02 05:36:38;;;;;;;7.97;3.38;;;10.80;99.90;;;;;;6178975;23;20004;-61
2023/06/02 05:39:04;;;;;;;9.63;4.15;;;10.90;99.90;;;;;;6152151;23;20032;-61
2023/06/02 05:41:29;;;;;;;8.95;3.67;;;11.00;99.90;;;;;;6179139;23;20023;-61
2023/06/02 05:43:55;;;;;;;10.77;4.32;;;11.10;99.90;;;;;;6179293;23;20225;-59
2023/06/02 05:46:22;;;;;;;11.73;3.95;;;11.20;99.90;;;;;;6179002;23;20051;-60
2023/06/02 05:48:48;;;;;;;7.70;4.35;;;11.30;99.90;;;;;;6179507;23;20377;-60
2023/06/02 05:51:14;;;;;;;10.93;4.38;;;11.40;99.90;;;;;;6178674;23;20418;-60
2023/06/02 05:53:39;;;;;;;9.20;4.28;;;11.50;99.90;;;;;;6178339;23;20009;-61
2023/06/02 05:56:05;;;;;;;8.50;3.45;;;11.50;99.90;;;;;;6178606;23;20081;-60
2023/06/02 05:58:31;;;;;;;11.02;5.63;;;11.60;99.90;;;;;;6178604;23;20095;-60
2023/06/02 06:00:57;;;;;;;9.05;4.20;;;11.70;99.90;;;;;;6151990;23;20016;-61
2023/06/02 06:03:22;;;;;;;10.20;4.40;;;11.70;99.90;;;;;;6152399;23;20013;-58
2023/06/02 06:05:48;;;;;;;8.13;3.75;;;11.80;99.90;;;;;;6178577;23;20009;-58
2023/06/02 06:08:14;;;;;;;7.32;4.03;;;11.80;99.90;;;;;;6175790;23;20101;-61
2023/06/02 06:10:42;;;;;;;10.63;5.05;;;11.90;99.90;;;;;;6178855;23;20009;-59
2023/06/02 06:13:08;;;;;;;11.45;4.78;;;12.00;99.90;;;;;;6177835;23;20005;-59
2023/06/02 06:15:33;;;;;;;13.25;5.15;;;12.10;99.90;;;;;;6180020;23;20136;-60
2023/06/02 06:17:59;;;;;;;9.15;4.28;;;12.20;99.90;;;;;;6180173;23;20033;-60
2023/06/02 06:20:25;;;;;;;10.13;5.22;;;12.20;99.90;;;;;;6180723;23;20043;-60
2023/06/02 06:22:50;;;;;;;8.88;4.90;;;12.30;99.90;;;;;;6179836;23;20137;-60
2023/06/02 06:25:16;;;;;;;11.43;5.60;;;12.40;99.90;;;;;;6180807;23;20043;-60
2023/06/02 06:27:42;;;;;;;9.30;4.55;;;12.50;99.90;;;;;;6152978;23;20275;-57
2023/06/02 06:30:08;;;;;;;10.00;3.78;;;12.60;99.90;;;;;;6179012;23;20088;-60
2023/06/02 06:32:34;;;;;;;11.32;5.53;;;12.70;99.90;;;;;;6180708;23;20005;-59
2023/06/02 06:35:00;;;;;;;9.52;4.60;;;12.80;99.90;;;;;;6181049;23;20076;-60
2023/06/02 06:37:27;;;;;;;8.82;4.07;;;12.90;99.90;;;;;;6180670;23;19998;-60
2023/06/02 06:39:53;;;;;;;9.50;4.28;;;13.00;99.90;;;;;;6180359;23;20063;-61
2023/06/02 06:42:19;;;;;;;6.45;4.15;;;13.10;99.90;;;;;;6181027;23;20080;-61
2023/06/02 06:44:45;;;;;;;6.95;4.15;;;13.20;99.90;;;;;;6179663;23;20401;-60
2023/06/02 06:47:10;;;;;;;7.07;3.20;;;13.20;99.90;;;;;;6180771;23;20016;-60
2023/06/02 06:49:36;;;;;;;5.78;3.28;;;13.30;99.90;;;;;;6154148;23;20032;-61
2023/06/02 06:52:02;;;;;;;6.78;3.60;;;13.40;99.90;;;;;;6180755;23;20377;-61
2023/06/02 06:54:27;;;;;;;7.55;3.58;;;13.40;99.90;;;;;;6179784;23;20005;-63
2023/06/02 06:56:53;;;;;;;5.60;3.20;;;13.50;99.90;;;;;;6180387;23;20008;-58
2023/06/02 06:59:18;;;;;;;8.43;3.95;;;13.50;99.90;;;;;;6181146;23;20048;-62
2023/06/02 07:01:44;;;;;;;4.97;3.25;;;13.60;99.90;;;;;;6179056;23;20020;-61
2023/06/02 07:04:10;;;;;;;5.35;3.30;;;13.60;99.90;;;;;;6179677;23;20627;-58
2023/06/02 07:06:36;;;;;;;5.35;3.00;;;13.70;99.90;;;;;;6153568;23;20020;-58
2023/06/02 07:09:02;;;;;;;7.20;3.40;;;13.80;99.90;;;;;;6180204;23;20001;-59
2023/06/02 07:11:28;;;;;;;3.33;2.80;;;13.80;99.90;;;;;;6153104;23;20059;-59
2023/06/02 07:13:54;;;;;;;5.47;3.10;;;13.90;99.90;;;;;;6179927;23;20005;-64
2023/06/02 07:16:21;;;;;;;4.10;2.72;;;14.10;99.90;;;;;;6153817;23;20005;-61
2023/06/02 07:18:49;;;;;;;3.92;2.28;;;14.20;99.90;;;;;;6179609;23;20008;-60
2023/06/02 07:21:15;;;;;;;8.10;3.15;;;14.40;99.90;;;;;;6153332;23;20005;-62
2023/06/02 07:23:40;;;;;;;3.97;2.67;;;14.40;99.90;;;;;;6180047;23;20024;-60
2023/06/02 07:26:06;;;;;;;6.03;2.50;;;14.40;99.90;;;;;;6178884;23;20056;-63
2023/06/02 07:28:32;;;;;;;5.85;2.50;;;14.40;99.90;;;;;;6180077;23;20009;-59
2023/06/02 07:30:57;;;;;;;4.70;2.40;;;14.40;99.90;;;;;;6179357;23;20613;-60
2023/06/02 07:33:23;;;;;;;3.90;2.40;;;14.40;99.90;;;;;;6179787;23;20013;-61
2023/06/02 07:35:48;;;;;;;5.63;2.20;;;14.40;99.90;;;;;;6179588;23;20001;-58
2023/06/02 07:38:14;;;;;;;3.90;2.22;;;14.60;99.90;;;;;;6179696;23;19997;-60
2023/06/02 07:40:39;;;;;;;2.92;1.98;;;14.60;99.90;;;;;;6179798;23;20004;-60
2023/06/02 07:43:05;;;;;;;3.38;1.95;;;14.60;99.90;;;;;;6153362;23;20337;-60
2023/06/02 07:45:31;;;;;;;4.95;1.73;;;14.60;99.90;;;;;;6180401;23;20092;-59
2023/06/02 07:47:56;;;;;;;2.70;1.77;;;14.60;99.90;;;;;;6179729;23;20005;-62
2023/06/02 07:50:22;;;;;;;3.53;2.13;;;14.60;99.90;;;;;;6179242;23;20064;-59
2023/06/02 07:52:48;;;;;;;5.03;1.85;;;14.50;99.90;;;;;;6179815;23;20011;-59
2023/06/02 07:55:14;;;;;;;3.08;2.15;;;14.40;99.90;;;;;;6179162;23;20028;-61
2023/06/02 07:57:39;;;;;;;5.18;2.47;;;14.40;99.90;;;;;;6178887;23;20441;-57
2023/06/02 08:00:13;;;;;;;8.18;2.55;;;14.40;99.90;;;;;;6178658;23;20005;-61
2023/06/02 08:02:40;;;;;;;3.92;2.00;;;14.40;99.90;;;;;;6153427;23;20001;-62
2023/06/02 08:05:06;;;;;;;4.35;1.90;;;14.40;99.90;;;;;;6179160;23;20467;-59
2023/06/02 08:07:31;;;;;;;5.22;2.20;;;14.50;99.90;;;;;;6179109;23;20005;-58
2023/06/02 08:09:57;;;;;;;3.85;1.80;;;14.60;99.90;;;;;;6179547;23;20084;-58
2023/06/02 08:12:22;;;;;;;4.53;2.20;;;14.60;99.90;;;;;;6179154;23;20542;-59
2023/06/02 08:14:48;;;;;;;3.45;1.80;;;14.70;99.90;;;;;;6178625;23;20492;-62
2023/06/02 08:17:13;;;;;;;7.13;2.63;;;14.80;99.90;;;;;;6179272;23;20006;-62
2023/06/02 08:19:39;;;;;;;3.65;2.00;;;14.80;99.90;;;;;;6153488;23;20009;-60
2023/06/02 08:22:05;;;;;;;4.45;1.80;;;14.80;99.90;;;;;;6179652;23;19997;-60
2023/06/02 08:24:31;;;;;;;4.35;2.25;;;14.90;99.90;;;;;;6178793;23;20001;-64
2023/06/02 08:26:57;;;;;;;4.03;1.63;;;14.90;99.90;;;;;;6178461;23;20005;-60
2023/06/02 08:29:23;;;;;;;3.92;1.58;;;15.00;99.90;;;;;;6179313;23;20068;-62
2023/06/02 08:31:49;;;;;;;3.78;1.80;;;15.10;99.90;;;;;;6152399;23;20517;-61
2023/06/02 08:34:20;;;;;;;3.80;1.70;;;15.20;99.90;;;;;;6178143;23;20036;-61
2023/06/02 08:36:49;;;;;;;4.50;1.35;;;15.30;99.90;;;;;;6151772;23;20001;-63
2023/06/02 08:39:15;;;;;;;3.60;1.42;;;15.40;99.90;;;;;;6178959;23;20049;-62
2023/06/02 08:41:45;;;;;;;2.00;1.50;;;15.50;99.90;;;;;;6178975;23;20001;-62
2023/06/02 08:44:12;;;;;;;2.38;1.80;;;15.80;99.90;;;;;;6151849;23;20441;-59
2023/06/02 08:46:38;;;;;;;2.40;1.30;;;16.00;99.90;;;;;;6178768;23;20073;-62
2023/06/02 08:49:03;;;;;;;2.85;1.83;;;16.10;99.90;;;;;;6178996;23;20133;-62
2023/06/02 08:51:36;;;;;;;5.53;1.75;;;16.00;99.90;;;;;;6178574;23;20008;-61
2023/06/02 08:54:02;;;;;;;3.38;1.65;;;16.10;99.90;;;;;;6178173;23;20011;-60
2023/06/02 08:56:29;;;;;;;4.63;2.00;;;16.30;99.90;;;;;;6179027;23;20052;-59
2023/06/02 08:58:54;;;;;;;5.05;2.10;;;16.40;99.90;;;;;;6178624;23;20095;-58
2023/06/02 09:01:20;;;;;;;3.88;1.95;;;16.50;99.90;;;;;;6178438;23;20048;-62
2023/06/02 09:03:47;;;;;;;3.33;1.27;;;16.40;99.90;;;;;;6178708;23;20001;-60
2023/06/02 09:06:23;;;;;;;4.65;1.50;;;16.30;99.90;;;;;;6178626;23;20353;-63
2023/06/02 09:08:57;;;;;;;3.63;1.30;;;16.20;99.90;;;;;;6178728;23;20069;-62
2023/06/02 09:11:24;;;;;;;4.30;1.27;;;16.10;99.90;;;;;;6152745;23;20013;-62
2023/06/02 09:13:49;;;;;;;2.53;1.30;;;16.10;99.90;;;;;;6178275;23;20384;-59
2023/06/02 09:16:15;;;;;;;2.28;1.38;;;16.10;99.90;;;;;;6177982;23;20001;-59
2023/06/02 09:18:55;;;;;;;4.60;1.58;;;16.10;99.90;;;;;;6178489;23;19997;-63
2023/06/02 09:21:29;;;;;;;4.13;1.55;;;16.20;99.90;;;;;;6178847;23;20004;-59
2023/06/02 09:23:56;;;;;;;1.98;1.48;;;16.30;99.90;;;;;;6178314;23;20005;-60
2023/06/02 09:26:32;;;;;;;3.53;1.33;;;16.40;99.90;;;;;;6178679;23;20004;-61
2023/06/02 09:29:03;;;;;;;5.10;1.73;;;16.50;99.90;;;;;;6178956;23;20438;-61
2023/06/02 09:31:56;;;;;;;2.88;1.65;;;16.80;99.90;;;;;;6152080;23;20025;-61
2023/06/02 09:34:23;;;;;;;5.32;1.50;;;17.10;99.90;;;;;;6177687;23;20468;-58
2023/06/02 09:36:53;;;;;;;1.52;1.30;;;17.10;99.90;;;;;;6178903;23;20005;-61
2023/06/02 09:39:35;;;;;;;3.35;1.48;;;17.10;99.90;;;;;;6178549;23;20356;-60
2023/06/02 09:42:02;;;;;;;4.20;1.40;;;17.00;99.90;;;;;;6178373;23;20004;-63
2023/06/02 09:44:27;;;;;;;2.10;1.27;;;17.00;99.90;;;;;;6151426;23;20321;-63
2023/06/02 09:46:53;;;;;;;1.48;1.13;;;16.90;99.90;;;;;;6178682;23;20012;-61
2023/06/02 09:49:20;;;;;;;8.35;1.70;;;16.80;99.90;;;;;;6179541;23;20445;-61
2023/06/02 09:51:45;;;;;;;1.77;1.13;;;16.80;99.90;;;;;;6180033;23;20011;-65
2023/06/02 09:54:11;;;;;;;2.03;1.38;;;17.00;99.90;;;;;;6154140;23;20091;-62
2023/06/02 09:56:38;;;;;;;2.17;1.55;;;16.90;99.90;;;;;;6179259;23;20338;-65
2023/06/02 09:59:05;;;;;;;1.65;1.40;;;17.00;99.90;;;;;;6180363;23;20465;-66
2023/06/02 10:01:31;;;;;;;3.40;1.08;;;17.00;99.90;;;;;;6179145;23;20020;-67
2023/06/02 10:03:57;;;;;;;1.30;0.90;;;17.20;99.90;;;;;;6152280;23;20422;-62
2023/06/02 10:06:25;;;;;;;1.08;0.90;;;17.40;99.90;;;;;;6181204;23;20005;-60
2023/06/02 10:09:11;;;;;;;1.90;1.23;;;17.70;99.90;;;;;;6180245;23;20389;-62
2023/06/02 10:11:53;;;;;;;3.00;1.30;;;18.00;99.90;;;;;;6180827;23;20001;-63
2023/06/02 10:14:29;;;;;;;1.92;1.10;;;18.20;99.90;;;;;;6153475;23;20011;-61
2023/06/02 10:17:13;;;;;;;3.33;1.20;;;18.30;99.90;;;;;;6180286;23;20035;-58
2023/06/02 10:19:58;;;;;;;3.85;1.33;;;18.40;99.90;;;;;;6180225;23;20001;-65
2023/06/02 10:22:39;;;;;;;2.97;1.40;;;18.60;99.90;;;;;;6180033;23;20016;-66
2023/06/02 10:25:16;;;;;;;3.85;1.30;;;18.40;99.90;;;;;;6180223;23;20348;-64
2023/06/02 10:27:44;;;;;;;4.35;1.63;;;18.10;99.90;;;;;;6180381;23;20005;-64
2023/06/02 10:30:10;;;;;;;2.35;1.27;;;17.90;99.90;;;;;;6179544;23;20043;-64
2023/06/02 10:32:44;;;;;;;2.22;1.27;;;17.80;99.90;;;;;;6152789;23;20005;-61
2023/06/02 10:35:10;;;;;;;3.83;1.17;;;17.90;99.90;;;;;;6179837;23;20386;-64
2023/06/02 10:37:37;;;;;;;3.10;1.30;;;18.00;99.90;;;;;;6179398;23;20040;-63
2023/06/02 10:40:04;;;;;;;4.47;1.45;;;18.00;99.80;;;;;;6153784;23;20008;-63
2023/06/02 10:42:32;;;;;;;4.22;1.35;;;18.10;99.30;;;;;;6180281;23;20102;-64
2023/06/02 10:45:16;;;;;;;3.03;1.25;;;18.20;98.70;;;;;;6180039;23;20012;-61
2023/06/02 10:47:42;;;;;;;2.25;0.88;;;18.30;98.50;;;;;;6180274;23;20080;-63
2023/06/02 10:50:11;;;;;;;2.97;1.70;;;18.10;98.40;;;;;;6180546;23;20488;-62
2023/06/02 10:53:03;;;;;;;1.45;0.95;;;18.00;99.20;;;;;;6180673;23;20480;-59
2023/06/02 10:55:30;;;;;;;2.58;1.05;;;18.10;99.90;;;;;;6178652;23;20057;-61
2023/06/02 10:58:01;;;;;;;2.78;1.48;;;18.20;98.80;;;;;;6179987;23;20013;-66
2023/06/02 11:00:32;;;;;;;1.80;1.05;;;18.30;99.30;;;;;;6148657;23;20543;-51
2023/06/02 11:03:20;;;;;;;3.40;1.13;;;18.50;98.50;;;;;;6179282;23;20060;-55
2023/06/02 11:05:49;;;;;;;2.97;1.20;;;18.80;96.40;;;;;;6180165;23;20009;-50
2023/06/02 11:08:15;;;;;;;2.47;1.08;;;18.80;95.60;;;;;;6180156;23;20060;-53
2023/06/02 11:10:43;;;;;;;4.00;1.48;;;18.70;96.30;;;;;;6179953;23;20004;-53
2023/06/02 11:13:10;;;;;;;2.78;1.17;;;18.30;96.30;;;;;;6179945;23;20001;-53
2023/06/02 11:15:36;;;;;;;2.35;1.10;;;18.20;96.80;;;;;;6179523;23;20001;-49
2023/06/02 11:18:21;;;;;;;1.15;1.05;;;17.90;95.50;;;;;;6180005;23;20314;-54
2023/06/02 11:20:51;;;;;;;1.73;1.30;;;17.90;96.30;;;;;;6179907;23;20355;-54
2023/06/02 11:23:20;;;;;;;2.92;1.30;;;18.00;96.80;;;;;;6179477;23;20236;-54
2023/06/02 11:25:46;;;;;;;1.85;1.15;;;18.10;97.30;;;;;;6179125;23;20059;-53
2023/06/02 11:28:22;;;;;;;2.80;1.00;;;18.30;95.90;;;;;;6179966;23;20033;-55
2023/06/02 11:31:15;;;;;;;2.05;1.13;;;18.20;94.80;;;;;;6178450;23;20128;-51
2023/06/02 11:33:49;;;;;;;2.90;1.55;;;18.20;95.30;;;;;;6179372;23;20005;-54
2023/06/02 11:36:39;;;;;;;2.80;0.93;;;18.20;95.60;;;;;;6178857;23;20414;-53
2023/06/02 11:39:06;;;;;;;2.65;1.10;;;18.30;94.80;;;;;;6179934;23;20100;-56
2023/06/02 11:41:32;;;;;;;2.10;1.17;;;18.20;94.50;;;;;;6179737;23;20401;-52
2023/06/02 11:44:09;;;;;;;3.33;1.25;;;18.30;94.60;;;;;;6179587;23;20005;-53
2023/06/02 11:46:35;;;;;;;2.50;0.90;;;18.40;93.80;;;;;;6179226;23;19997;-53
2023/06/02 11:49:01;;;;;;;2.20;1.00;;;18.50;93.10;;;;;;6179647;23;20029;-51
2023/06/02 11:51:27;;;;;;;2.42;1.10;;;18.70;93.30;;;;;;6179157;23;20008;-50
2023/06/02 11:54:02;;;;;;;3.78;1.15;;;18.80;92.00;;;;;;6178992;23;20005;-50
2023/06/02 11:56:28;;;;;;;5.32;1.23;;;18.80;92.10;;;;;;6179092;23;20009;-54
2023/06/02 11:58:54;;;;;;;4.13;1.55;;;19.00;91.60;;;;;;6179596;23;20469;-55
2023/06/02 12:01:21;;;;;;;4.60;1.92;;;19.10;90.90;;;;;;6178609;23;20017;-51
2023/06/02 12:04:03;;;;;;;1.52;0.90;;;19.00;90.70;;;;;;6178654;23;19997;-55
2023/06/02 12:06:30;;;;;;;22.88;4.05;;;19.00;90.10;;;;;;6178282;23;19997;-52
2023/06/02 12:08:56;;;;;;;3.63;1.00;;;19.10;89.60;;;;;;6179186;23;20048;-51
2023/06/02 12:11:23;;;;;;;3.97;1.15;;;19.00;89.50;;;;;;6178606;23;20346;-53
2023/06/02 12:14:06;;;;;;;2.58;1.25;;;19.10;88.30;;;;;;6178695;23;20057;-53
2023/06/02 12:16:34;;;;;;;2.97;0.82;;;19.20;87.90;;;;;;6179316;23;20378;-52
2023/06/02 12:19:14;;;;;;;3.95;0.82;;;19.20;87.10;;;;;;6178695;23;20488;-51
2023/06/02 12:21:40;;;;;;;2.47;0.90;;;19.20;87.30;;;;;;6179752;23;20005;-52
2023/06/02 12:24:06;;;;;;;1.63;0.88;;;19.20;85.50;;;;;;6178781;23;19997;-56
2023/06/02 12:26:42;;;;;;;1.20;0.95;;;19.10;84.30;;;;;;6179955;23;20330;-55
2023/06/02 12:29:09;;;;;;;1.73;0.90;;;19.00;84.30;;;;;;6178758;23;20004;-51
2023/06/02 12:31:35;;;;;;;3.72;1.10;;;18.90;84.20;;;;;;6178841;23;20068;-52
2023/06/02 12:34:00;;;;;;;1.75;0.93;;;19.00;85.10;;;;;;6178458;23;20001;-54
2023/06/02 12:36:27;;;;;;;3.65;0.80;;;19.00;84.60;;;;;;6177170;23;20397;-50
2023/06/02 12:38:52;;;;;;;1.98;1.02;;;19.00;83.20;;;;;;6179122;23;20059;-51
2023/06/02 12:41:18;;;;;;;3.08;1.48;;;18.80;84.40;;;;;;6179079;23;20373;-52
2023/06/02 12:43:43;;;;;;;0.88;0.65;;;18.90;85.60;;;;;;6178656;23;20027;-52
2023/06/02 12:46:13;;;;;;;1.63;1.13;;;19.00;84.20;;;;;;6178544;23;20016;-52
2023/06/02 12:48:39;;;;;;;1.77;0.73;;;19.10;84.10;;;;;;6178708;23;20028;-49